sensor_id;sensor_type;location;lat;lon;timestamp;pressure;altitude;pressure_sealevel;temperature;humidity
30073;BME280;16897;52.422;13.678;2022-07-09T00:02:21;102068.91;;;18.88;52.82
30073;BME280;16897;52.422;13.678;2022-07-09T00:06:23;102057.53;;;18.73;53.02
30073;BME280;16897;52.422;13.678;2022-07-09T00:10:25;102066.41;;;18.72;52.80
30073;BME280;16897;52.422;13.678;2022-07-09T00:14:27;102064.84;;;18.70;53.05
30073;BME280;16897;52.422;13.678;2022-07-09T00:18:31;102058.25;;;18.63;52.89
30073;BME280;16897;52.422;13.678;2022-07-09T00:22:33;102071.28;;;18.66;53.25
30073;BME280;16897;52.422;13.678;2022-07-09T00:26:34;102070.75;;;18.61;53.04
30073;BME280;16897;52.422;13.678;2022-07-09T00:30:36;102060.56;;;18.54;53.09
30073;BME280;16897;52.422;13.678;2022-07-09T00:34:38;102077.09;;;18.58;53.10
30073;BME280;16897;52.422;13.678;2022-07-09T00:38:39;102072.19;;;18.52;53.12
30073;BME280;16897;52.422;13.678;2022-07-09T00:42:41;102057.59;;;18.33;53.18
30073;BME280;16897;52.422;13.678;2022-07-09T00:46:43;102057.78;;;18.30;53.04
30073;BME280;16897;52.422;13.678;2022-07-09T00:50:44;102047.28;;;18.16;53.10
30073;BME280;16897;52.422;13.678;2022-07-09T00:54:47;102059.72;;;18.14;53.44
30073;BME280;16897;52.422;13.678;2022-07-09T00:58:50;102084.38;;;18.14;53.16
30073;BME280;16897;52.422;13.678;2022-07-09T01:02:53;102072.81;;;18.03;53.40
30073;BME280;16897;52.422;13.678;2022-07-09T01:06:55;102073.31;;;17.95;53.53
30073;BME280;16897;52.422;13.678;2022-07-09T01:11:00;102032.03;;;17.65;53.39
30073;BME280;16897;52.422;13.678;2022-07-09T01:15:02;102019.63;;;17.53;53.35
30073;BME280;16897;52.422;13.678;2022-07-09T01:19:04;102006.78;;;17.47;53.49
30073;BME280;16897;52.422;13.678;2022-07-09T01:23:06;102051.91;;;17.71;53.41
30073;BME280;16897;52.422;13.678;2022-07-09T01:27:08;102002.94;;;17.38;53.77
30073;BME280;16897;52.422;13.678;2022-07-09T01:31:10;101989.50;;;17.29;53.50
30073;BME280;16897;52.422;13.678;2022-07-09T01:35:11;101991.38;;;17.27;53.60
30073;BME280;16897;52.422;13.678;2022-07-09T01:39:13;101993.44;;;17.21;53.93
30073;BME280;16897;52.422;13.678;2022-07-09T01:43:15;102032.25;;;17.48;53.79
30073;BME280;16897;52.422;13.678;2022-07-09T01:47:16;102033.38;;;17.44;53.74
30073;BME280;16897;52.422;13.678;2022-07-09T01:51:18;101974.81;;;17.10;54.09
30073;BME280;16897;52.422;13.678;2022-07-09T01:55:20;102030.19;;;17.39;53.89
30073;BME280;16897;52.422;13.678;2022-07-09T01:59:21;102029.66;;;17.34;54.04
30073;BME280;16897;52.422;13.678;2022-07-09T02:03:23;101997.41;;;17.14;54.31
30073;BME280;16897;52.422;13.678;2022-07-09T02:07:25;102033.34;;;17.31;53.98
30073;BME280;16897;52.422;13.678;2022-07-09T02:11:27;102006.00;;;17.18;54.14
30073;BME280;16897;52.422;13.678;2022-07-09T02:15:29;102015.41;;;17.22;54.25
30073;BME280;16897;52.422;13.678;2022-07-09T02:19:30;102006.94;;;17.17;54.18
30073;BME280;16897;52.422;13.678;2022-07-09T02:23:32;102013.06;;;17.17;54.35
30073;BME280;16897;52.422;13.678;2022-07-09T02:27:34;101994.59;;;17.03;54.31
30073;BME280;16897;52.422;13.678;2022-07-09T02:31:36;102020.31;;;17.14;54.47
30073;BME280;16897;52.422;13.678;2022-07-09T02:35:37;101956.66;;;16.77;54.24
30073;BME280;16897;52.422;13.678;2022-07-09T02:39:39;101969.44;;;16.83;54.49
30073;BME280;16897;52.422;13.678;2022-07-09T02:43:41;101987.25;;;16.94;54.34
30073;BME280;16897;52.422;13.678;2022-07-09T02:47:45;101991.03;;;16.90;54.34
30073;BME280;16897;52.422;13.678;2022-07-09T02:51:47;101970.06;;;16.72;54.60
30073;BME280;16897;52.422;13.678;2022-07-09T02:55:48;101957.53;;;16.62;54.65
30073;BME280;16897;52.422;13.678;2022-07-09T02:59:50;101989.19;;;16.76;54.61
30073;BME280;16897;52.422;13.678;2022-07-09T03:03:52;102027.75;;;16.93;54.91
30073;BME280;16897;52.422;13.678;2022-07-09T03:07:54;102021.06;;;16.87;54.83
30073;BME280;16897;52.422;13.678;2022-07-09T03:11:56;102003.19;;;16.78;54.87
30073;BME280;16897;52.422;13.678;2022-07-09T03:15:57;102011.66;;;16.83;54.62
30073;BME280;16897;52.422;13.678;2022-07-09T03:19:59;102015.59;;;16.90;54.57
30073;BME280;16897;52.422;13.678;2022-07-09T03:24:01;102012.88;;;16.92;54.80
30073;BME280;16897;52.422;13.678;2022-07-09T03:28:03;102014.88;;;16.88;54.85
30073;BME280;16897;52.422;13.678;2022-07-09T03:32:06;102003.94;;;16.80;54.75
30073;BME280;16897;52.422;13.678;2022-07-09T03:36:08;102013.63;;;16.79;54.66
30073;BME280;16897;52.422;13.678;2022-07-09T03:40:11;102036.81;;;16.89;54.77
30073;BME280;16897;52.422;13.678;2022-07-09T03:44:13;102032.59;;;16.86;54.91
30073;BME280;16897;52.422;13.678;2022-07-09T03:48:14;102029.59;;;16.76;55.05
30073;BME280;16897;52.422;13.678;2022-07-09T03:52:16;102033.56;;;16.69;54.74
30073;BME280;16897;52.422;13.678;2022-07-09T03:56:18;102027.44;;;16.69;54.90
30073;BME280;16897;52.422;13.678;2022-07-09T04:00:21;102039.31;;;16.76;55.03
30073;BME280;16897;52.422;13.678;2022-07-09T04:04:23;102018.03;;;16.65;54.85
30073;BME280;16897;52.422;13.678;2022-07-09T04:08:25;102013.78;;;16.62;54.67
30073;BME280;16897;52.422;13.678;2022-07-09T04:12:26;102014.53;;;16.64;54.87
30073;BME280;16897;52.422;13.678;2022-07-09T04:16:29;102035.69;;;16.78;54.71
30073;BME280;16897;52.422;13.678;2022-07-09T04:20:30;102024.78;;;16.69;54.72
30073;BME280;16897;52.422;13.678;2022-07-09T04:24:32;102027.16;;;16.73;54.79
30073;BME280;16897;52.422;13.678;2022-07-09T04:28:36;102026.97;;;16.76;55.02
30073;BME280;16897;52.422;13.678;2022-07-09T04:32:38;102006.91;;;16.74;54.75
30073;BME280;16897;52.422;13.678;2022-07-09T04:36:40;102032.66;;;16.85;54.77
30073;BME280;16897;52.422;13.678;2022-07-09T04:40:41;102022.50;;;16.78;54.68
30073;BME280;16897;52.422;13.678;2022-07-09T04:44:43;102017.22;;;16.78;54.60
30073;BME280;16897;52.422;13.678;2022-07-09T04:48:45;102016.09;;;16.83;54.61
30073;BME280;16897;52.422;13.678;2022-07-09T04:52:47;102019.84;;;16.93;54.63
30073;BME280;16897;52.422;13.678;2022-07-09T04:56:49;102016.28;;;16.94;54.70
30073;BME280;16897;52.422;13.678;2022-07-09T05:00:50;102004.31;;;16.88;54.53
30073;BME280;16897;52.422;13.678;2022-07-09T05:04:52;102036.63;;;17.06;54.68
30073;BME280;16897;52.422;13.678;2022-07-09T05:08:54;102018.16;;;17.06;54.66
30073;BME280;16897;52.422;13.678;2022-07-09T05:12:56;102024.69;;;17.15;54.65
30073;BME280;16897;52.422;13.678;2022-07-09T05:16:57;102014.19;;;17.13;54.66
30073;BME280;16897;52.422;13.678;2022-07-09T05:20:59;102028.41;;;17.25;54.59
30073;BME280;16897;52.422;13.678;2022-07-09T05:25:02;102035.88;;;17.33;54.71
30073;BME280;16897;52.422;13.678;2022-07-09T05:29:05;102022.47;;;17.36;54.73
30073;BME280;16897;52.422;13.678;2022-07-09T05:33:06;102000.97;;;17.28;54.47
30073;BME280;16897;52.422;13.678;2022-07-09T05:37:08;102021.34;;;17.40;54.58
30073;BME280;16897;52.422;13.678;2022-07-09T05:41:10;102012.94;;;17.47;54.59
30073;BME280;16897;52.422;13.678;2022-07-09T05:45:12;102027.53;;;17.53;54.85
30073;BME280;16897;52.422;13.678;2022-07-09T05:49:14;101992.84;;;17.45;54.85
30073;BME280;16897;52.422;13.678;2022-07-09T05:53:16;102001.16;;;17.66;54.78
30073;BME280;16897;52.422;13.678;2022-07-09T05:57:18;101981.59;;;17.56;54.56
30073;BME280;16897;52.422;13.678;2022-07-09T06:01:19;101995.59;;;17.70;54.55
30073;BME280;16897;52.422;13.678;2022-07-09T06:05:21;101983.22;;;17.71;54.56
30073;BME280;16897;52.422;13.678;2022-07-09T06:09:23;101995.88;;;17.80;54.61
30073;BME280;16897;52.422;13.678;2022-07-09T06:13:25;101987.53;;;17.86;54.87
30073;BME280;16897;52.422;13.678;2022-07-09T06:17:27;101977.09;;;17.85;54.76
30073;BME280;16897;52.422;13.678;2022-07-09T06:21:28;101980.38;;;17.88;54.82
30073;BME280;16897;52.422;13.678;2022-07-09T06:25:30;101991.16;;;17.98;54.76
30073;BME280;16897;52.422;13.678;2022-07-09T06:29:31;101963.47;;;17.91;54.82
30073;BME280;16897;52.422;13.678;2022-07-09T06:33:33;101973.72;;;17.96;54.65
30073;BME280;16897;52.422;13.678;2022-07-09T06:37:35;101994.47;;;18.14;54.96
30073;BME280;16897;52.422;13.678;2022-07-09T06:41:36;101983.91;;;18.14;54.85
30073;BME280;16897;52.422;13.678;2022-07-09T06:45:39;101957.13;;;18.06;54.84
30073;BME280;16897;52.422;13.678;2022-07-09T06:49:41;101967.94;;;18.16;54.78
30073;BME280;16897;52.422;13.678;2022-07-09T06:53:42;101976.13;;;18.26;54.65
30073;BME280;16897;52.422;13.678;2022-07-09T06:57:44;101979.31;;;18.31;54.75
30073;BME280;16897;52.422;13.678;2022-07-09T07:01:46;102000.38;;;18.45;54.80
30073;BME280;16897;52.422;13.678;2022-07-09T07:05:48;101953.78;;;18.17;54.68
30073;BME280;16897;52.422;13.678;2022-07-09T07:09:49;101970.41;;;18.32;54.79
30073;BME280;16897;52.422;13.678;2022-07-09T07:13:51;101982.78;;;18.44;54.95
30073;BME280;16897;52.422;13.678;2022-07-09T07:17:53;101982.03;;;18.55;54.84
30073;BME280;16897;52.422;13.678;2022-07-09T07:21:55;101986.94;;;18.61;54.80
30073;BME280;16897;52.422;13.678;2022-07-09T07:26:00;101999.44;;;18.72;54.96
30073;BME280;16897;52.422;13.678;2022-07-09T07:30:02;101960.47;;;18.61;54.96
30073;BME280;16897;52.422;13.678;2022-07-09T07:34:04;101959.94;;;18.69;54.75
30073;BME280;16897;52.422;13.678;2022-07-09T07:38:06;101951.59;;;18.75;54.88
30073;BME280;16897;52.422;13.678;2022-07-09T07:42:07;101959.63;;;18.86;54.55
30073;BME280;16897;52.422;13.678;2022-07-09T07:46:09;101985.56;;;19.07;54.80
30073;BME280;16897;52.422;13.678;2022-07-09T07:50:11;101974.00;;;19.08;54.66
30073;BME280;16897;52.422;13.678;2022-07-09T07:54:12;101966.56;;;19.13;54.62
30073;BME280;16897;52.422;13.678;2022-07-09T07:58:14;101951.94;;;19.20;54.75
30073;BME280;16897;52.422;13.678;2022-07-09T08:02:15;101944.06;;;19.31;54.72
30073;BME280;16897;52.422;13.678;2022-07-09T08:06:17;101941.13;;;19.47;54.53
30073;BME280;16897;52.422;13.678;2022-07-09T08:10:19;101956.84;;;19.61;54.43
30073;BME280;16897;52.422;13.678;2022-07-09T08:14:20;101947.63;;;19.67;54.41
30073;BME280;16897;52.422;13.678;2022-07-09T08:18:22;101951.31;;;19.77;54.44
30073;BME280;16897;52.422;13.678;2022-07-09T08:22:24;101950.13;;;19.93;54.44
30073;BME280;16897;52.422;13.678;2022-07-09T08:26:27;101945.47;;;19.96;54.22
30073;BME280;16897;52.422;13.678;2022-07-09T08:30:30;101956.94;;;20.08;54.22
30073;BME280;16897;52.422;13.678;2022-07-09T08:34:31;101920.03;;;19.94;53.95
30073;BME280;16897;52.422;13.678;2022-07-09T08:38:33;101934.03;;;20.07;54.27
30073;BME280;16897;52.422;13.678;2022-07-09T08:42:35;101934.53;;;20.12;53.94
30073;BME280;16897;52.422;13.678;2022-07-09T08:46:41;101889.88;;;19.83;54.16
30073;BME280;16897;52.422;13.678;2022-07-09T08:50:42;101933.56;;;20.13;54.18
30073;BME280;16897;52.422;13.678;2022-07-09T08:54:45;101898.84;;;20.05;54.15
30073;BME280;16897;52.422;13.678;2022-07-09T08:58:47;101898.00;;;20.16;54.03
30073;BME280;16897;52.422;13.678;2022-07-09T09:02:49;101909.38;;;20.29;54.30
30073;BME280;16897;52.422;13.678;2022-07-09T09:06:53;101923.63;;;20.50;53.78
30073;BME280;16897;52.422;13.678;2022-07-09T09:10:55;101913.13;;;20.60;54.14
30073;BME280;16897;52.422;13.678;2022-07-09T09:14:57;101903.97;;;20.64;54.01
30073;BME280;16897;52.422;13.678;2022-07-09T09:18:59;101892.88;;;20.59;53.59
30073;BME280;16897;52.422;13.678;2022-07-09T09:23:02;101897.00;;;20.63;53.66
30073;BME280;16897;52.422;13.678;2022-07-09T09:27:06;101918.22;;;20.74;53.58
30073;BME280;16897;52.422;13.678;2022-07-09T09:31:36;101926.88;;;20.76;53.60
30073;BME280;16897;52.422;13.678;2022-07-09T09:35:43;101924.72;;;20.70;53.72
30073;BME280;16897;52.422;13.678;2022-07-09T09:39:50;101920.63;;;20.66;53.69
30073;BME280;16897;52.422;13.678;2022-07-09T09:43:55;101880.28;;;20.39;54.08
30073;BME280;16897;52.422;13.678;2022-07-09T09:47:59;101931.25;;;20.66;53.78
30073;BME280;16897;52.422;13.678;2022-07-09T09:52:09;101924.38;;;20.64;53.65
30073;BME280;16897;52.422;13.678;2022-07-09T09:56:11;101927.38;;;20.59;53.69
30073;BME280;16897;52.422;13.678;2022-07-09T10:00:15;101938.47;;;20.53;53.70
30073;BME280;16897;52.422;13.678;2022-07-09T10:04:18;101924.94;;;20.33;54.17
30073;BME280;16897;52.422;13.678;2022-07-09T10:08:20;101928.88;;;20.28;54.46
30073;BME280;16897;52.422;13.678;2022-07-09T10:12:29;101921.97;;;20.14;54.69
30073;BME280;16897;52.422;13.678;2022-07-09T10:16:39;101886.03;;;19.87;55.07
30073;BME280;16897;52.422;13.678;2022-07-09T10:20:43;101923.94;;;20.12;54.98
30073;BME280;16897;52.422;13.678;2022-07-09T10:24:45;101935.75;;;20.19;55.16
30073;BME280;16897;52.422;13.678;2022-07-09T10:28:50;101884.22;;;19.88;55.45
30073;BME280;16897;52.422;13.678;2022-07-09T10:33:04;101901.59;;;20.03;55.77
30073;BME280;16897;52.422;13.678;2022-07-09T10:37:06;101927.53;;;20.11;55.49
30073;BME280;16897;52.422;13.678;2022-07-09T10:41:08;101914.91;;;20.15;55.57
30073;BME280;16897;52.422;13.678;2022-07-09T10:45:24;101903.41;;;20.14;55.79
30073;BME280;16897;52.422;13.678;2022-07-09T10:49:25;101902.00;;;20.21;55.49
30073;BME280;16897;52.422;13.678;2022-07-09T10:53:29;101906.97;;;20.37;55.97
30073;BME280;16897;52.422;13.678;2022-07-09T10:57:31;101901.41;;;20.51;55.63
30073;BME280;16897;52.422;13.678;2022-07-09T11:01:32;101900.34;;;20.65;55.64
30073;BME280;16897;52.422;13.678;2022-07-09T11:05:44;101872.47;;;20.60;55.80
30073;BME280;16897;52.422;13.678;2022-07-09T11:09:46;101890.09;;;20.83;55.60
30073;BME280;16897;52.422;13.678;2022-07-09T11:13:52;101866.78;;;20.87;55.73
30073;BME280;16897;52.422;13.678;2022-07-09T11:18:05;101876.28;;;21.12;55.40
30073;BME280;16897;52.422;13.678;2022-07-09T11:22:07;101855.81;;;21.24;55.23
30073;BME280;16897;52.422;13.678;2022-07-09T11:26:09;101857.00;;;21.42;55.25
30073;BME280;16897;52.422;13.678;2022-07-09T11:30:15;101856.28;;;21.61;55.21
30073;BME280;16897;52.422;13.678;2022-07-09T11:34:18;101851.09;;;21.80;55.02
30073;BME280;16897;52.422;13.678;2022-07-09T11:38:20;101839.34;;;22.04;54.50
30073;BME280;16897;52.422;13.678;2022-07-09T11:42:22;101839.38;;;22.14;54.13
30073;BME280;16897;52.422;13.678;2022-07-09T11:46:23;101823.63;;;22.22;54.00
30073;BME280;16897;52.422;13.678;2022-07-09T11:50:25;101776.44;;;22.03;53.88
30073;BME280;16897;52.422;13.678;2022-07-09T11:54:29;101755.88;;;22.05;53.71
30073;BME280;16897;52.422;13.678;2022-07-09T11:58:31;101807.47;;;22.44;53.84
30073;BME280;16897;52.422;13.678;2022-07-09T12:02:36;101794.31;;;22.52;53.50
30073;BME280;16897;52.422;13.678;2022-07-09T12:06:50;101796.31;;;22.70;53.06
30073;BME280;16897;52.422;13.678;2022-07-09T12:10:53;101785.38;;;22.73;53.02
30073;BME280;16897;52.422;13.678;2022-07-09T12:14:55;101801.38;;;22.83;52.91
30073;BME280;16897;52.422;13.678;2022-07-09T12:18:57;101774.00;;;22.71;52.65
30073;BME280;16897;52.422;13.678;2022-07-09T12:22:59;101731.25;;;22.53;52.58
30073;BME280;16897;52.422;13.678;2022-07-09T12:27:01;101771.09;;;22.84;52.76
30073;BME280;16897;52.422;13.678;2022-07-09T12:31:08;101754.25;;;22.83;52.13
30073;BME280;16897;52.422;13.678;2022-07-09T12:35:15;101755.25;;;22.82;52.34
30073;BME280;16897;52.422;13.678;2022-07-09T12:39:20;101763.25;;;22.82;52.14
30073;BME280;16897;52.422;13.678;2022-07-09T12:43:22;101769.97;;;22.77;52.41
30073;BME280;16897;52.422;13.678;2022-07-09T12:47:24;101758.16;;;22.60;52.20
30073;BME280;16897;52.422;13.678;2022-07-09T12:51:28;101752.84;;;22.60;51.95
30073;BME280;16897;52.422;13.678;2022-07-09T12:55:30;101727.44;;;22.46;52.18
30073;BME280;16897;52.422;13.678;2022-07-09T12:59:33;101755.09;;;22.64;52.32
30073;BME280;16897;52.422;13.678;2022-07-09T13:03:38;101732.13;;;22.63;52.27
30073;BME280;16897;52.422;13.678;2022-07-09T13:07:40;101738.16;;;22.85;52.20
30073;BME280;16897;52.422;13.678;2022-07-09T13:11:42;101747.84;;;22.95;52.11
30073;BME280;16897;52.422;13.678;2022-07-09T13:15:45;101756.66;;;22.86;52.34
30073;BME280;16897;52.422;13.678;2022-07-09T13:19:47;101717.06;;;22.33;52.43
30073;BME280;16897;52.422;13.678;2022-07-09T13:23:50;101736.59;;;22.13;52.89
30073;BME280;16897;52.422;13.678;2022-07-09T13:27:52;101753.91;;;21.97;53.35
30073;BME280;16897;52.422;13.678;2022-07-09T13:31:54;101722.38;;;21.62;53.63
30073;BME280;16897;52.422;13.678;2022-07-09T13:35:55;101720.25;;;21.56;53.80
30073;BME280;16897;52.422;13.678;2022-07-09T13:39:57;101715.16;;;21.43;54.33
30073;BME280;16897;52.422;13.678;2022-07-09T13:43:59;101715.31;;;21.41;54.41
30073;BME280;16897;52.422;13.678;2022-07-09T13:48:01;101692.66;;;21.26;54.77
30073;BME280;16897;52.422;13.678;2022-07-09T13:52:03;101702.47;;;21.35;54.59
30073;BME280;16897;52.422;13.678;2022-07-09T13:56:05;101714.88;;;21.46;54.58
30073;BME280;16897;52.422;13.678;2022-07-09T14:00:08;101697.16;;;21.35;55.06
30073;BME280;16897;52.422;13.678;2022-07-09T14:04:10;101688.50;;;21.33;55.28
30073;BME280;16897;52.422;13.678;2022-07-09T14:08:12;101683.31;;;21.32;55.28
30073;BME280;16897;52.422;13.678;2022-07-09T14:12:14;101670.56;;;21.26;55.29
30073;BME280;16897;52.422;13.678;2022-07-09T14:16:15;101685.19;;;21.41;55.48
30073;BME280;16897;52.422;13.678;2022-07-09T14:20:17;101660.38;;;21.31;55.57
30073;BME280;16897;52.422;13.678;2022-07-09T14:24:20;101652.97;;;21.34;55.94
30073;BME280;16897;52.422;13.678;2022-07-09T14:28:22;101651.81;;;21.48;56.15
30073;BME280;16897;52.422;13.678;2022-07-09T14:32:24;101653.94;;;21.54;55.90
30073;BME280;16897;52.422;13.678;2022-07-09T14:36:25;101664.06;;;21.70;56.11
30073;BME280;16897;52.422;13.678;2022-07-09T14:40:27;101634.38;;;21.65;55.96
30073;BME280;16897;52.422;13.678;2022-07-09T14:44:30;101625.31;;;21.68;55.99
30073;BME280;16897;52.422;13.678;2022-07-09T14:48:32;101630.78;;;21.76;55.68
30073;BME280;16897;52.422;13.678;2022-07-09T14:52:34;101632.72;;;21.74;56.18
30073;BME280;16897;52.422;13.678;2022-07-09T14:56:35;101635.16;;;21.77;56.23
30073;BME280;16897;52.422;13.678;2022-07-09T15:00:38;101650.31;;;21.96;55.96
30073;BME280;16897;52.422;13.678;2022-07-09T15:04:40;101613.31;;;21.83;56.11
30073;BME280;16897;52.422;13.678;2022-07-09T15:08:41;101645.72;;;22.07;55.89
30073;BME280;16897;52.422;13.678;2022-07-09T15:12:43;101628.31;;;22.03;55.77
30073;BME280;16897;52.422;13.678;2022-07-09T15:16:45;101631.25;;;22.00;55.98
30073;BME280;16897;52.422;13.678;2022-07-09T15:20:47;101624.28;;;21.99;55.88
30073;BME280;16897;52.422;13.678;2022-07-09T15:24:49;101583.91;;;21.84;55.98
30073;BME280;16897;52.422;13.678;2022-07-09T15:28:50;101615.78;;;22.25;55.70
30073;BME280;16897;52.422;13.678;2022-07-09T15:32:52;101597.56;;;22.30;55.76
30073;BME280;16897;52.422;13.678;2022-07-09T15:36:54;101599.25;;;22.41;55.42
30073;BME280;16897;52.422;13.678;2022-07-09T15:40:55;101574.06;;;22.35;55.08
30073;BME280;16897;52.422;13.678;2022-07-09T15:44:57;101608.38;;;22.58;54.93
30073;BME280;16897;52.422;13.678;2022-07-09T15:49:00;101547.16;;;22.19;54.85
30073;BME280;16897;52.422;13.678;2022-07-09T15:53:02;101574.06;;;22.35;54.91
30073;BME280;16897;52.422;13.678;2022-07-09T15:57:04;101511.44;;;22.12;54.78
30073;BME280;16897;52.422;13.678;2022-07-09T16:01:06;101577.94;;;22.70;54.75
30073;BME280;16897;52.422;13.678;2022-07-09T16:05:08;101570.66;;;22.72;54.57
30073;BME280;16897;52.422;13.678;2022-07-09T16:09:10;101562.50;;;22.83;54.35
30073;BME280;16897;52.422;13.678;2022-07-09T16:13:11;101508.47;;;22.63;53.99
30073;BME280;16897;52.422;13.678;2022-07-09T16:17:14;101560.94;;;23.00;53.97
30073;BME280;16897;52.422;13.678;2022-07-09T16:21:16;101562.16;;;23.06;53.61
30073;BME280;16897;52.422;13.678;2022-07-09T16:25:18;101560.78;;;23.02;53.13
30073;BME280;16897;52.422;13.678;2022-07-09T16:29:20;101516.84;;;22.68;53.21
30073;BME280;16897;52.422;13.678;2022-07-09T16:33:21;101525.81;;;22.67;53.18
30073;BME280;16897;52.422;13.678;2022-07-09T16:37:23;101553.50;;;22.84;52.82
30073;BME280;16897;52.422;13.678;2022-07-09T16:41:25;101535.88;;;22.73;53.06
30073;BME280;16897;52.422;13.678;2022-07-09T16:45:27;101521.88;;;22.71;53.19
30073;BME280;16897;52.422;13.678;2022-07-09T16:49:28;101519.66;;;22.67;52.72
30073;BME280;16897;52.422;13.678;2022-07-09T16:53:30;101531.53;;;22.72;52.89
30073;BME280;16897;52.422;13.678;2022-07-09T16:57:32;101522.59;;;22.64;52.93
30073;BME280;16897;52.422;13.678;2022-07-09T17:01:34;101495.44;;;22.41;53.07
30073;BME280;16897;52.422;13.678;2022-07-09T17:05:37;101513.66;;;22.55;53.17
30073;BME280;16897;52.422;13.678;2022-07-09T17:09:38;101512.78;;;22.54;53.17
30073;BME280;16897;52.422;13.678;2022-07-09T17:13:40;101523.19;;;22.58;52.87
30073;BME280;16897;52.422;13.678;2022-07-09T17:17:42;101479.66;;;22.39;53.00
30073;BME280;16897;52.422;13.678;2022-07-09T17:21:44;101521.03;;;22.71;52.71
30073;BME280;16897;52.422;13.678;2022-07-09T17:25:46;101509.25;;;22.73;53.07
30073;BME280;16897;52.422;13.678;2022-07-09T17:29:48;101496.94;;;22.63;52.89
30073;BME280;16897;52.422;13.678;2022-07-09T17:33:50;101507.03;;;22.69;52.70
30073;BME280;16897;52.422;13.678;2022-07-09T17:37:53;101512.06;;;22.72;52.77
30073;BME280;16897;52.422;13.678;2022-07-09T17:41:55;101508.28;;;22.65;52.18
30073;BME280;16897;52.422;13.678;2022-07-09T17:45:57;101495.16;;;22.53;52.27
30073;BME280;16897;52.422;13.678;2022-07-09T17:49:58;101483.69;;;22.43;52.51
30073;BME280;16897;52.422;13.678;2022-07-09T17:54:01;101532.72;;;22.50;52.53
30073;BME280;16897;52.422;13.678;2022-07-09T17:58:03;101540.44;;;22.34;52.63
30073;BME280;16897;52.422;13.678;2022-07-09T18:02:05;101512.00;;;21.96;52.64
30073;BME280;16897;52.422;13.678;2022-07-09T18:06:07;101529.22;;;21.92;52.89
30073;BME280;16897;52.422;13.678;2022-07-09T18:10:09;101486.31;;;21.46;53.16
30073;BME280;16897;52.422;13.678;2022-07-09T18:14:11;101535.91;;;21.67;52.80
30073;BME280;16897;52.422;13.678;2022-07-09T18:18:13;101547.09;;;21.60;53.32
30073;BME280;16897;52.422;13.678;2022-07-09T18:22:14;101512.81;;;21.27;53.26
30073;BME280;16897;52.422;13.678;2022-07-09T18:26:16;101540.53;;;21.34;53.47
30073;BME280;16897;52.422;13.678;2022-07-09T18:30:21;101522.84;;;21.13;53.51
30073;BME280;16897;52.422;13.678;2022-07-09T18:34:23;101513.88;;;21.05;53.63
30073;BME280;16897;52.422;13.678;2022-07-09T18:38:24;101533.47;;;21.13;53.39
30073;BME280;16897;52.422;13.678;2022-07-09T18:42:26;101497.88;;;20.95;53.42
30073;BME280;16897;52.422;13.678;2022-07-09T18:46:28;101479.38;;;20.84;53.64
30073;BME280;16897;52.422;13.678;2022-07-09T18:50:31;101540.06;;;21.19;53.79
30073;BME280;16897;52.422;13.678;2022-07-09T18:54:34;101536.50;;;21.09;53.39
30073;BME280;16897;52.422;13.678;2022-07-09T18:58:36;101521.66;;;20.96;53.34
30073;BME280;16897;52.422;13.678;2022-07-09T19:02:39;101537.59;;;20.96;53.51
30073;BME280;16897;52.422;13.678;2022-07-09T19:06:41;101521.31;;;20.90;53.67
30073;BME280;16897;52.422;13.678;2022-07-09T19:10:43;101531.00;;;20.91;53.53
30073;BME280;16897;52.422;13.678;2022-07-09T19:14:45;101559.13;;;21.03;53.61
30073;BME280;16897;52.422;13.678;2022-07-09T19:18:48;101517.94;;;20.78;53.67
30073;BME280;16897;52.422;13.678;2022-07-09T19:22:52;101551.41;;;20.90;53.93
30073;BME280;16897;52.422;13.678;2022-07-09T19:26:54;101526.59;;;20.80;53.82
30073;BME280;16897;52.422;13.678;2022-07-09T19:31:00;101553.06;;;20.91;54.13
30073;BME280;16897;52.422;13.678;2022-07-09T19:35:20;101549.13;;;20.86;54.09
30073;BME280;16897;52.422;13.678;2022-07-09T19:39:22;101548.69;;;20.81;54.21
30073;BME280;16897;52.422;13.678;2022-07-09T19:43:23;101556.66;;;20.81;54.06
30073;BME280;16897;52.422;13.678;2022-07-09T19:47:25;101540.47;;;20.63;54.28
30073;BME280;16897;52.422;13.678;2022-07-09T19:51:28;101585.41;;;20.75;54.28
30073;BME280;16897;52.422;13.678;2022-07-09T19:55:33;101580.03;;;20.66;54.20
30073;BME280;16897;52.422;13.678;2022-07-09T19:59:40;101589.84;;;20.54;53.84
30073;BME280;16897;52.422;13.678;2022-07-09T20:03:45;101572.50;;;20.39;53.92
30073;BME280;16897;52.422;13.678;2022-07-09T20:07:50;101590.72;;;20.43;54.03
30073;BME280;16897;52.422;13.678;2022-07-09T20:11:52;101572.09;;;20.22;54.01
30073;BME280;16897;52.422;13.678;2022-07-09T20:15:54;101567.09;;;20.08;54.01
30073;BME280;16897;52.422;13.678;2022-07-09T20:19:56;101524.56;;;19.77;53.76
30073;BME280;16897;52.422;13.678;2022-07-09T20:24:00;101571.13;;;19.91;53.62
30073;BME280;16897;52.422;13.678;2022-07-09T20:28:02;101575.38;;;19.82;53.58
30073;BME280;16897;52.422;13.678;2022-07-09T20:32:05;101556.38;;;19.66;53.22
30073;BME280;16897;52.422;13.678;2022-07-09T20:36:07;101562.13;;;19.60;53.07
30073;BME280;16897;52.422;13.678;2022-07-09T20:40:09;101608.16;;;19.81;53.30
30073;BME280;16897;52.422;13.678;2022-07-09T20:44:11;101599.13;;;19.73;53.39
30073;BME280;16897;52.422;13.678;2022-07-09T20:48:12;101613.72;;;19.67;53.18
30073;BME280;16897;52.422;13.678;2022-07-09T20:52:14;101620.06;;;19.64;53.26